createdAt,value
2018-01-12T00:02:11.095Z,46.90
2018-01-12T00:04:38.594Z,52.40
2018-01-12T00:07:06.166Z,44.77
2018-01-12T00:09:33.663Z,39.90
2018-01-12T00:12:01.181Z,54.00
2018-01-12T00:14:28.654Z,57.47
2018-01-12T00:16:56.146Z,42.00
2018-01-12T00:19:23.654Z,53.50
2018-01-12T00:21:51.153Z,55.80
2018-01-12T00:24:18.649Z,55.70
2018-01-12T00:26:46.138Z,55.47
2018-01-12T00:29:13.694Z,51.97
2018-01-12T00:31:41.246Z,56.87
2018-01-12T00:34:08.928Z,51.90
2018-01-12T00:36:36.458Z,61.10
2018-01-12T00:39:04.207Z,58.27
2018-01-12T00:41:31.934Z,47.00
2018-01-12T00:43:59.414Z,58.17
2018-01-12T00:46:26.883Z,52.03
2018-01-12T00:48:54.366Z,52.93
2018-01-12T00:51:21.874Z,56.83
2018-01-12T00:53:49.346Z,51.07
2018-01-12T00:56:16.846Z,43.77
2018-01-12T00:58:44.386Z,46.90
2018-01-12T01:01:11.878Z,42.17
2018-01-12T01:03:39.434Z,51.20
2018-01-12T01:06:06.922Z,43.30
2018-01-12T01:08:34.423Z,51.43
2018-01-12T01:11:01.936Z,54.83
2018-01-12T01:13:29.429Z,58.20
2018-01-12T01:15:56.899Z,52.23
2018-01-12T01:18:24.391Z,55.80
2018-01-12T01:20:51.878Z,56.40
2018-01-12T01:23:19.380Z,51.53
2018-01-12T01:25:47.177Z,55.80
2018-01-12T01:28:14.671Z,55.37
2018-01-12T01:30:42.166Z,52.90
2018-01-12T01:33:09.660Z,49.80
2018-01-12T01:35:37.142Z,50.43
2018-01-12T01:38:04.636Z,51.83
2018-01-12T01:40:32.294Z,55.03
2018-01-12T01:42:59.802Z,52.90
2018-01-12T01:45:27.293Z,51.10
2018-01-12T01:47:54.822Z,56.03
2018-01-12T01:50:22.313Z,48.40
2018-01-12T01:52:49.800Z,52.10
2018-01-12T01:55:17.309Z,52.67
2018-01-12T01:57:44.774Z,51.83
2018-01-12T02:00:12.257Z,53.63
2018-01-12T02:02:39.766Z,54.60
2018-01-12T02:05:07.250Z,53.90
2018-01-12T02:07:34.730Z,49.37
2018-01-12T02:10:02.242Z,50.87
2018-01-12T02:12:29.743Z,47.17
2018-01-12T02:14:57.246Z,49.97
2018-01-12T02:17:24.752Z,48.77
2018-01-12T02:19:52.255Z,54.20
2018-01-12T02:22:19.746Z,52.90
2018-01-12T02:24:47.263Z,53.33
2018-01-12T02:27:14.762Z,51.10
2018-01-12T02:29:42.242Z,52.33
2018-01-12T02:32:09.755Z,56.60
2018-01-12T02:34:37.282Z,50.80
2018-01-12T02:37:04.748Z,53.27
2018-01-12T02:39:32.251Z,54.97
2018-01-12T02:41:59.731Z,51.33
2018-01-12T02:44:27.252Z,46.03
2018-01-12T02:46:54.768Z,50.53
2018-01-12T02:49:22.236Z,50.50
2018-01-12T02:51:49.704Z,52.53
2018-01-12T02:54:17.224Z,46.50
2018-01-12T02:56:44.704Z,56.67
2018-01-12T02:59:12.202Z,46.43
2018-01-12T03:01:39.942Z,33.07
2018-01-12T03:04:07.422Z,45.30
2018-01-12T03:06:34.926Z,38.87
2018-01-12T03:09:02.441Z,41.93
2018-01-12T03:11:29.941Z,49.83
2018-01-12T03:13:57.430Z,48.70
2018-01-12T03:16:24.915Z,53.27
2018-01-12T03:18:52.416Z,51.23
2018-01-12T03:21:19.931Z,50.17
2018-01-12T03:23:47.428Z,43.27
2018-01-12T03:26:14.911Z,41.70
2018-01-12T03:28:42.406Z,40.10
2018-01-12T03:31:09.931Z,44.07
2018-01-12T03:33:37.425Z,45.07
2018-01-12T03:36:04.890Z,39.27
2018-01-12T03:38:32.398Z,57.07
2018-01-12T03:40:59.878Z,50.70
2018-01-12T03:43:27.341Z,49.20
2018-01-12T03:45:54.831Z,51.77
2018-01-12T03:48:22.314Z,56.00
2018-01-12T03:50:49.785Z,49.63
2018-01-12T03:53:17.313Z,37.30
2018-01-12T03:55:44.806Z,49.80
2018-01-12T03:58:12.301Z,45.67
2018-01-12T04:00:39.786Z,46.43
2018-01-12T04:03:07.252Z,35.87
2018-01-12T04:05:34.730Z,49.77
2018-01-12T04:08:02.246Z,49.10
2018-01-12T04:10:29.718Z,36.47
2018-01-12T04:12:57.228Z,46.40
2018-01-12T04:15:24.749Z,49.90
2018-01-12T04:17:52.244Z,47.90
2018-01-12T04:20:19.738Z,46.23
2018-01-12T04:22:47.269Z,48.87
2018-01-12T04:25:14.749Z,39.20
2018-01-12T04:27:42.207Z,55.63
2018-01-12T04:30:09.726Z,53.23
2018-01-12T04:32:37.186Z,54.97
2018-01-12T04:35:04.676Z,54.37
2018-01-12T04:37:32.185Z,45.00
2018-01-12T04:39:59.658Z,42.43
2018-01-12T04:42:27.118Z,54.93
2018-01-12T04:44:54.854Z,50.87
2018-01-12T04:47:22.384Z,35.60
2018-01-12T04:49:49.887Z,49.90
2018-01-12T04:52:17.406Z,51.47
2018-01-12T04:54:44.913Z,52.27
2018-01-12T04:57:12.398Z,52.27
2018-01-12T04:59:39.924Z,50.67
2018-01-12T05:02:07.382Z,49.33
2018-01-12T05:04:34.890Z,48.10
2018-01-12T05:07:02.376Z,49.77
2018-01-12T05:09:29.854Z,38.07
2018-01-12T05:11:57.338Z,40.50
2018-01-12T05:14:24.804Z,46.37
2018-01-12T05:16:52.282Z,47.80
2018-01-12T05:19:19.782Z,44.53
2018-01-12T05:21:47.269Z,46.23
2018-01-12T05:24:14.761Z,47.60
2018-01-12T05:26:42.272Z,45.40
2018-01-12T05:29:09.748Z,42.87
2018-01-12T05:31:37.232Z,37.97
2018-01-12T05:34:04.763Z,35.30
2018-01-12T05:36:32.253Z,36.97
2018-01-12T05:38:59.723Z,42.83
2018-01-12T05:41:27.206Z,36.27
2018-01-12T05:43:54.706Z,36.13
2018-01-12T05:46:22.191Z,40.90
2018-01-12T05:48:49.714Z,40.77
2018-01-12T05:51:17.182Z,29.00
2018-01-12T05:53:44.662Z,29.43
2018-01-12T05:56:12.396Z,39.03
2018-01-12T05:58:39.918Z,37.00
2018-01-12T06:01:19.265Z,24.20
2018-01-12T06:03:58.705Z,39.70
2018-01-12T06:06:26.189Z,39.70
2018-01-12T06:08:53.650Z,24.00
2018-01-12T06:11:21.201Z,33.87
2018-01-12T06:13:48.725Z,41.03
2018-01-12T06:16:16.222Z,46.10
2018-01-12T06:18:43.706Z,39.17
2018-01-12T06:21:11.179Z,29.20
2018-01-12T06:23:38.646Z,35.93
2018-01-12T06:26:06.158Z,35.50
2018-01-12T06:28:33.649Z,40.00
2018-01-12T06:31:01.134Z,38.70
2018-01-12T06:33:28.633Z,36.00
2018-01-12T06:35:56.156Z,37.97
2018-01-12T06:38:23.622Z,27.97
2018-01-12T06:40:51.122Z,39.37
2018-01-12T06:43:18.624Z,41.67
2018-01-12T06:45:46.122Z,35.87
2018-01-12T06:48:13.820Z,38.40
2018-01-12T06:50:41.298Z,37.20
2018-01-12T06:53:08.768Z,26.90
2018-01-12T06:55:36.275Z,36.60
2018-01-12T06:58:03.794Z,35.90
2018-01-12T07:00:31.293Z,35.70
2018-01-12T07:02:58.823Z,33.77
2018-01-12T07:05:26.356Z,34.77
2018-01-12T07:07:53.823Z,25.40
2018-01-12T07:10:21.303Z,33.93
2018-01-12T07:12:48.825Z,34.53
2018-01-12T07:15:16.390Z,31.83
2018-01-12T07:17:43.873Z,30.23
2018-01-12T07:20:23.274Z,32.53
2018-01-12T07:23:02.651Z,20.17
2018-01-12T07:25:30.233Z,27.07
2018-01-12T07:27:57.759Z,28.37
2018-01-12T07:30:25.282Z,22.07
2018-01-12T07:32:52.775Z,33.83
2018-01-12T07:35:20.302Z,32.63
2018-01-12T07:37:47.838Z,35.00
2018-01-12T07:40:15.351Z,30.77
2018-01-12T07:42:42.819Z,30.63
2018-01-12T07:45:10.290Z,30.87
2018-01-12T07:47:37.785Z,30.77
2018-01-12T07:50:05.286Z,31.33
2018-01-12T07:52:32.789Z,32.30
2018-01-12T07:55:00.296Z,29.97
2018-01-12T07:57:27.771Z,22.07
2018-01-12T07:59:55.234Z,22.27
2018-01-12T08:05:24.706Z,29.40
2018-01-12T08:07:52.182Z,24.57
2018-01-12T08:10:19.661Z,26.57
2018-01-12T08:12:47.149Z,31.57
2018-01-12T08:15:14.634Z,34.30
2018-01-12T08:17:42.156Z,33.87
2018-01-12T08:20:09.631Z,26.20
2018-01-12T08:22:37.134Z,23.57
2018-01-12T08:25:04.600Z,30.47
2018-01-12T08:27:32.078Z,33.67
2018-01-12T08:29:59.581Z,32.07
2018-01-12T08:32:27.070Z,34.40
2018-01-12T08:34:54.530Z,35.20
2018-01-12T08:37:22.047Z,31.60
2018-01-12T08:39:49.593Z,30.93
2018-01-12T08:42:17.064Z,27.40
2018-01-12T08:44:44.537Z,27.57
2018-01-12T08:47:12.018Z,27.97
2018-01-12T08:49:39.503Z,33.50
2018-01-12T08:52:07.015Z,29.70
2018-01-12T08:54:34.526Z,33.40
2018-01-12T08:57:02.014Z,29.80
2018-01-12T08:59:29.565Z,32.43
2018-01-12T09:01:57.044Z,32.30
2018-01-12T09:04:24.607Z,30.97
2018-01-12T09:06:52.109Z,20.00
2018-01-12T09:09:19.589Z,32.67
2018-01-12T09:11:47.075Z,25.47
2018-01-12T09:14:26.442Z,31.83
2018-01-12T09:16:53.934Z,31.77
2018-01-12T09:19:33.164Z,34.07
2018-01-12T09:22:00.638Z,32.67
2018-01-12T09:24:28.104Z,25.47
2018-01-12T09:26:55.842Z,27.23
2018-01-12T09:29:23.341Z,36.50
2018-01-12T09:31:51.557Z,27.53
2018-01-12T09:34:31.168Z,33.50
2018-01-12T09:36:58.654Z,32.00
2018-01-12T09:39:38.149Z,33.50
2018-01-12T09:42:05.667Z,34.07
2018-01-12T09:44:33.136Z,33.07
2018-01-12T09:47:12.785Z,38.40
2018-01-12T09:49:47.922Z,34.27
2018-01-12T09:52:15.442Z,35.60
2018-01-12T09:54:42.906Z,33.57
2018-01-12T09:57:10.370Z,34.90
2018-01-12T09:59:43.790Z,35.17
2018-01-12T10:02:11.285Z,36.27
2018-01-12T10:04:38.767Z,32.83
2018-01-12T10:07:17.219Z,38.33
2018-01-12T10:09:48.433Z,34.90
2018-01-12T10:12:15.898Z,34.00
2018-01-12T10:14:43.431Z,33.33
2018-01-12T10:17:10.917Z,27.13
2018-01-12T10:22:42.615Z,33.90
2018-01-12T10:25:10.171Z,31.73
2018-01-12T10:27:37.641Z,27.33
2018-01-12T10:30:24.153Z,33.73
2018-01-12T10:33:03.551Z,33.23
2018-01-12T10:35:31.046Z,35.57
2018-01-12T10:37:58.515Z,34.07
2018-01-12T10:40:47.531Z,34.00
2018-01-12T10:43:15.034Z,26.43
2018-01-12T10:45:54.350Z,31.10
2018-01-12T10:48:33.662Z,20.23
2018-01-12T10:51:12.941Z,29.40
2018-01-12T10:53:40.408Z,36.27
2018-01-12T10:56:07.913Z,29.43
2018-01-12T10:58:35.415Z,30.83
2018-01-12T11:01:09.394Z,30.20
2018-01-12T11:03:36.894Z,30.43
2018-01-12T11:06:04.606Z,31.97
2018-01-12T11:08:32.096Z,37.73
2018-01-12T11:10:59.586Z,32.80
2018-01-12T11:13:27.109Z,32.03
2018-01-12T11:15:54.609Z,32.50
2018-01-12T11:18:22.086Z,24.30
2018-01-12T11:20:49.594Z,30.47
2018-01-12T11:23:17.084Z,32.23
2018-01-12T11:25:44.559Z,36.27
2018-01-12T11:28:12.066Z,31.83
2018-01-12T11:30:39.548Z,24.53
2018-01-12T11:33:07.036Z,21.27
2018-01-12T11:35:34.520Z,30.80
2018-01-12T11:38:02.000Z,30.37
2018-01-12T11:40:29.503Z,19.17
2018-01-12T11:42:56.999Z,22.57
2018-01-12T11:45:24.498Z,21.67
2018-01-12T11:47:52.014Z,27.63
2018-01-12T11:50:19.484Z,23.57
2018-01-12T11:52:47.001Z,33.23
2018-01-12T11:55:14.494Z,35.00
2018-01-12T11:57:41.973Z,32.50
2018-01-12T12:00:09.470Z,34.80
2018-01-12T12:02:37.138Z,34.60
2018-01-12T12:05:04.650Z,27.37
2018-01-12T12:07:32.110Z,22.00
2018-01-12T12:09:59.633Z,32.50
2018-01-12T12:12:27.123Z,35.47
2018-01-12T12:14:54.636Z,29.80
2018-01-12T12:17:22.150Z,29.20
2018-01-12T12:19:49.613Z,27.30
2018-01-12T12:22:17.143Z,27.10
2018-01-12T12:24:44.666Z,34.13
2018-01-12T12:27:12.138Z,31.23
2018-01-12T12:29:39.604Z,28.97
2018-01-12T12:32:07.141Z,27.43
2018-01-12T12:34:34.703Z,35.83
2018-01-12T12:37:02.179Z,29.07
2018-01-12T12:39:29.695Z,34.40
2018-01-12T12:41:57.198Z,32.90
2018-01-12T12:44:24.714Z,35.37
2018-01-12T12:46:52.206Z,34.70
2018-01-12T12:51:53.642Z,31.50
2018-01-12T12:54:21.130Z,32.00
2018-01-12T12:56:48.594Z,30.47
2018-01-12T12:59:16.109Z,31.67
2018-01-12T13:01:43.793Z,32.70
2018-01-12T13:04:11.299Z,30.17
2018-01-12T13:06:38.795Z,31.40
2018-01-12T13:09:06.265Z,28.50
2018-01-12T13:11:33.766Z,25.17
2018-01-12T13:14:01.305Z,28.73
2018-01-12T13:16:28.772Z,30.73
2018-01-12T13:18:56.306Z,31.63
2018-01-12T13:21:23.880Z,23.33
2018-01-12T13:23:51.406Z,31.83
2018-01-12T13:26:18.922Z,30.73
2018-01-12T13:28:46.415Z,29.50
2018-01-12T13:31:13.978Z,31.50
2018-01-12T13:33:41.505Z,24.60
2018-01-12T13:36:08.998Z,29.47
2018-01-12T13:38:36.458Z,26.10
2018-01-12T13:41:04.011Z,34.57
2018-01-12T13:43:31.587Z,28.90
2018-01-12T13:45:59.592Z,36.90
2018-01-12T13:48:27.151Z,33.37
2018-01-12T13:50:54.640Z,27.30
2018-01-12T13:53:22.129Z,34.27
2018-01-12T13:55:49.617Z,36.53
2018-01-12T13:58:17.134Z,30.23
2018-01-12T14:00:44.590Z,28.13
2018-01-12T14:03:12.120Z,33.80
2018-01-12T14:05:39.594Z,25.07
2018-01-12T14:08:07.087Z,31.20
2018-01-12T14:10:34.570Z,33.10
2018-01-12T14:13:02.034Z,34.60
2018-01-12T14:15:29.505Z,31.77
2018-01-12T14:17:57.046Z,33.80
2018-01-12T14:20:24.546Z,35.30
2018-01-12T14:22:52.035Z,33.20
2018-01-12T14:25:19.541Z,28.00
2018-01-12T14:27:47.082Z,36.10
2018-01-12T14:30:14.551Z,31.20
2018-01-12T14:32:42.053Z,29.77
2018-01-12T14:35:09.551Z,30.53
2018-01-12T14:37:37.069Z,32.70
2018-01-12T14:40:04.557Z,34.93
2018-01-12T14:42:32.067Z,32.57
2018-01-12T14:44:59.555Z,31.97
2018-01-12T14:47:27.154Z,25.17
2018-01-12T14:49:55.308Z,31.67
2018-01-12T14:52:22.882Z,33.80
2018-01-12T14:54:50.444Z,26.70
2018-01-12T14:57:17.909Z,31.20
2018-01-12T14:59:45.402Z,32.40
2018-01-12T15:02:12.868Z,33.70
2018-01-12T15:04:40.369Z,35.90
2018-01-12T15:07:08.149Z,36.80
2018-01-12T15:09:35.629Z,32.77
2018-01-12T15:12:03.115Z,31.60
2018-01-12T15:14:30.666Z,35.57
2018-01-12T15:16:58.144Z,32.80
2018-01-12T15:19:25.645Z,33.57
2018-01-12T15:21:53.184Z,30.50
2018-01-12T15:24:20.694Z,32.90
2018-01-12T15:26:48.185Z,36.50
2018-01-12T15:29:15.814Z,34.87
2018-01-12T15:31:43.374Z,36.70
2018-01-12T15:34:10.830Z,38.67
2018-01-12T15:36:38.429Z,34.60
2018-01-12T15:39:05.905Z,36.77
2018-01-12T15:41:33.376Z,35.33
2018-01-12T15:44:00.861Z,34.00
2018-01-12T15:46:28.337Z,27.83
2018-01-12T15:48:55.826Z,38.93
2018-01-12T15:51:23.321Z,39.00
2018-01-12T15:53:50.856Z,37.47
2018-01-12T15:56:18.385Z,37.27
2018-01-12T15:58:45.861Z,35.80
2018-01-12T16:01:13.378Z,20.50
2018-01-12T16:03:40.835Z,39.10
2018-01-12T16:06:08.336Z,41.93
2018-01-12T16:08:36.042Z,37.90
2018-01-12T16:11:03.551Z,39.10
2018-01-12T16:13:31.013Z,41.67
2018-01-12T16:15:58.542Z,44.43
2018-01-12T16:18:26.017Z,36.60
2018-01-12T16:20:53.504Z,42.73
2018-01-12T16:23:20.999Z,38.60
2018-01-12T16:25:48.463Z,41.90
2018-01-12T16:28:15.934Z,43.57
2018-01-12T16:30:43.511Z,43.50
2018-01-12T16:33:11.001Z,37.40
2018-01-12T16:35:38.509Z,40.90
2018-01-12T16:38:06.080Z,40.97
2018-01-12T16:40:33.541Z,39.60
2018-01-12T16:43:01.049Z,39.93
2018-01-12T16:45:28.526Z,38.80
2018-01-12T16:47:56.045Z,41.53
2018-01-12T16:50:23.542Z,44.00
2018-01-12T16:52:51.068Z,43.30
2018-01-12T16:55:18.541Z,40.37
2018-01-12T16:57:46.139Z,39.20
2018-01-12T17:00:13.633Z,44.30
2018-01-12T17:02:41.157Z,40.53
2018-01-12T17:05:08.733Z,37.50
2018-01-12T17:07:36.193Z,37.67
2018-01-12T17:10:03.726Z,40.27
2018-01-12T17:12:31.386Z,36.33
2018-01-12T17:14:58.868Z,36.83
2018-01-12T17:17:26.333Z,35.60
2018-01-12T17:19:53.819Z,36.27
2018-01-12T17:22:21.302Z,37.80
2018-01-12T17:24:48.798Z,32.20
2018-01-12T17:27:16.293Z,32.30
2018-01-12T17:29:43.754Z,37.77
2018-01-12T17:32:11.231Z,36.77
2018-01-12T17:34:38.716Z,23.83
2018-01-12T17:37:06.182Z,32.87
2018-01-12T17:39:34.032Z,27.60
2018-01-12T17:42:01.584Z,37.00
2018-01-12T17:44:29.064Z,36.97
2018-01-12T17:46:56.607Z,41.00
2018-01-12T17:49:24.138Z,37.33
2018-01-12T17:51:51.645Z,34.80
2018-01-12T17:54:19.140Z,36.67
2018-01-12T17:56:46.608Z,35.83
2018-01-12T17:59:14.336Z,36.90
2018-01-12T18:01:42.062Z,38.70
2018-01-12T18:04:09.624Z,36.23
2018-01-12T18:06:37.098Z,35.77
2018-01-12T18:09:04.621Z,37.40
2018-01-12T18:11:32.129Z,36.40
2018-01-12T18:13:59.686Z,34.87
2018-01-12T18:16:27.158Z,35.57
2018-01-12T18:18:55.035Z,32.93
2018-01-12T18:21:22.548Z,35.10
2018-01-12T18:23:50.424Z,36.50
2018-01-12T18:26:17.905Z,34.80
2018-01-12T18:28:45.399Z,39.17
2018-01-12T18:31:12.899Z,37.47
2018-01-12T18:33:40.434Z,38.30
2018-01-12T18:36:07.898Z,37.43
2018-01-12T18:38:35.369Z,33.67
2018-01-12T18:41:03.711Z,38.13
2018-01-12T18:43:31.209Z,33.90
2018-01-12T18:45:59.007Z,34.73
2018-01-12T18:48:26.519Z,40.13
2018-01-12T18:50:54.031Z,36.50
2018-01-12T18:53:22.259Z,37.27
2018-01-12T18:55:49.805Z,35.67
2018-01-12T18:58:17.310Z,36.20
2018-01-12T19:00:44.820Z,40.00
2018-01-12T19:03:12.363Z,37.37
2018-01-12T19:05:39.938Z,39.03
2018-01-12T19:08:07.444Z,39.17
2018-01-12T19:10:34.957Z,39.73
2018-01-12T19:13:02.461Z,38.47
2018-01-12T19:15:29.952Z,39.00
2018-01-12T19:17:57.470Z,40.20
2018-01-12T19:20:24.930Z,43.00
2018-01-12T19:22:52.430Z,36.97
2018-01-12T19:25:19.924Z,37.00
2018-01-12T19:27:47.426Z,38.87
2018-01-12T19:30:14.906Z,34.23
2018-01-12T19:32:42.406Z,40.50
2018-01-12T19:35:09.867Z,37.30
2018-01-12T19:37:37.412Z,36.03
2018-01-12T19:40:04.961Z,43.50
2018-01-12T19:42:32.488Z,38.60
2018-01-12T19:44:59.981Z,40.67
2018-01-12T19:47:27.506Z,33.77
2018-01-12T19:49:55.002Z,39.63
2018-01-12T19:52:22.477Z,37.93
2018-01-12T19:54:49.963Z,46.13
2018-01-12T19:57:17.422Z,35.43
2018-01-12T19:59:44.901Z,43.80
2018-01-12T20:02:12.406Z,45.50
2018-01-12T20:04:39.892Z,44.77
2018-01-12T20:07:07.438Z,42.80
2018-01-12T20:09:34.915Z,45.10
2018-01-12T20:12:02.407Z,49.83
2018-01-12T20:14:29.898Z,44.10
2018-01-12T20:16:57.537Z,49.43
2018-01-12T20:19:25.036Z,42.73
2018-01-12T20:21:52.556Z,42.03
2018-01-12T20:24:20.094Z,44.63
2018-01-12T20:26:47.561Z,37.83
2018-01-12T20:29:15.141Z,47.70
2018-01-12T20:31:42.650Z,46.07
2018-01-12T20:34:10.147Z,45.07
2018-01-12T20:36:37.647Z,45.67
2018-01-12T20:39:05.126Z,44.10
2018-01-12T20:41:32.596Z,41.73
2018-01-12T20:44:00.122Z,38.47
2018-01-12T20:46:27.630Z,32.80
2018-01-12T20:48:55.088Z,44.93
2018-01-12T20:51:22.942Z,46.67
2018-01-12T20:53:50.445Z,52.60
2018-01-12T20:56:17.955Z,46.97
2018-01-12T20:58:45.427Z,46.20
2018-01-12T21:01:12.908Z,52.20
2018-01-12T21:03:40.378Z,36.53
2018-01-12T21:06:07.906Z,54.70
2018-01-12T21:08:35.398Z,76.70
2018-01-12T21:11:02.870Z,60.13
2018-01-12T21:13:30.386Z,64.10
2018-01-12T21:15:57.852Z,39.10
2018-01-12T21:18:25.315Z,39.90
2018-01-12T21:20:52.872Z,44.40
2018-01-12T21:23:20.348Z,45.07
2018-01-12T21:25:47.833Z,42.40
2018-01-12T21:28:15.313Z,38.33
2018-01-12T21:30:43.340Z,48.93
2018-01-12T21:33:10.824Z,38.73
2018-01-12T21:35:38.763Z,38.00
2018-01-12T21:38:06.290Z,63.43
2018-01-12T21:40:33.762Z,50.53
2018-01-12T21:43:01.230Z,38.87
2018-01-12T21:45:28.993Z,36.67
2018-01-12T21:47:56.713Z,49.43
2018-01-12T21:50:24.194Z,60.83
2018-01-12T21:52:51.689Z,66.07
2018-01-12T21:55:19.220Z,54.90
2018-01-12T21:57:49.628Z,56.70
2018-01-12T22:00:17.149Z,45.27
2018-01-12T22:02:45.089Z,101.67
2018-01-12T22:05:12.574Z,61.97
2018-01-12T22:07:40.069Z,59.87
2018-01-12T22:10:07.571Z,46.83
2018-01-12T22:12:35.030Z,45.53
2018-01-12T22:15:03.488Z,51.53
2018-01-12T22:17:30.998Z,50.10
2018-01-12T22:19:58.654Z,51.37
2018-01-12T22:22:26.385Z,51.20
2018-01-12T22:24:53.865Z,33.80
2018-01-12T22:27:21.538Z,51.33
2018-01-12T22:29:49.039Z,44.30
2018-01-12T22:32:16.511Z,49.03
2018-01-12T22:34:44.032Z,38.67
2018-01-12T22:37:11.550Z,47.70
2018-01-12T22:39:39.297Z,43.13
2018-01-12T22:42:06.798Z,41.00
2018-01-12T22:44:34.279Z,41.90
2018-01-12T22:47:01.792Z,54.77
2018-01-12T22:49:29.716Z,60.50
2018-01-12T22:51:57.224Z,46.97
2018-01-12T22:54:24.694Z,44.50
2018-01-12T22:56:52.525Z,41.20
2018-01-12T22:59:20.022Z,53.47
2018-01-12T23:01:48.099Z,47.90
2018-01-12T23:04:15.570Z,45.77
2018-01-12T23:06:43.087Z,99.87
2018-01-12T23:09:10.598Z,43.67
2018-01-12T23:11:38.093Z,54.37
2018-01-12T23:14:05.590Z,52.10
2018-01-12T23:16:33.072Z,45.83
2018-01-12T23:19:00.563Z,58.37
2018-01-12T23:21:28.068Z,138.23
2018-01-12T23:23:55.546Z,54.90
2018-01-12T23:26:23.030Z,44.93
2018-01-12T23:28:50.581Z,49.83
2018-01-12T23:31:18.077Z,56.23
2018-01-12T23:33:45.592Z,41.40
2018-01-12T23:36:13.096Z,41.10
2018-01-12T23:38:40.661Z,47.00
2018-01-12T23:41:08.138Z,55.57
2018-01-12T23:43:35.623Z,44.47
2018-01-12T23:46:03.095Z,47.63
2018-01-12T23:48:30.586Z,55.10
2018-01-12T23:50:58.089Z,50.97
2018-01-12T23:53:25.585Z,44.10
2018-01-12T23:55:53.064Z,42.90
2018-01-12T23:58:20.639Z,53.00
